Time;durP1;ratioP1;P1;durP2;ratioP2;P2;SDS_P1;SDS_P2;PMS_P1;PMS_P2;Temp;Humidity;BMP_temperature;BMP_pressure;BME280_temperature;BME280_humidity;BME280_pressure;Samples;Min_cycle;Max_cycle;Signal;HPM_P1;HPM_P2
2022/01/18 00:00:23;;;;;;;65.53;31.88;;;;;;;;;;5055076;28;20409;-72
2022/01/18 00:02:49;;;;;;;73.07;33.80;;;;;;;;;;5056719;28;20024;-72
2022/01/18 00:05:16;;;;;;;75.70;35.42;;;;;;;;;;5038753;28;20121;-71
2022/01/18 00:07:43;;;;;;;74.20;32.72;;;;;;;;;;5056139;28;20095;-72
2022/01/18 00:10:10;;;;;;;63.22;30.75;;;;;;;;;;5040539;28;20024;-72
2022/01/18 00:15:31;;;;;;;51.45;26.17;;;;;;;;;;5060513;28;20036;-72
2022/01/18 00:20:48;;;;;;;59.70;26.90;;;;;;;;;;5059221;28;20431;-73
2022/01/18 00:23:14;;;;;;;49.05;24.90;;;;;;;;;;5060366;28;20323;-72
2022/01/18 00:25:43;;;;;;;52.70;28.20;;;;;;;;;;5042518;28;20048;-72
2022/01/18 00:28:09;;;;;;;68.18;31.00;;;;;;;;;;5042384;28;20040;-72
2022/01/18 00:35:42;;;;;;;56.67;28.73;;;;;;;;;;5058990;28;20025;-72
2022/01/18 00:38:50;;;;;;;61.65;28.67;;;;;;;;;;5059753;28;20102;-73
2022/01/18 00:40:57;;;;;;;51.38;26.10;;;;;;;;;;5054152;28;20036;-72
2022/01/18 00:43:23;;;;;;;60.28;27.90;;;;;;;;;;5058925;28;20024;-72
2022/01/18 00:45:49;;;;;;;70.60;33.17;;;;;;;;;;5058835;28;20419;-72
2022/01/18 00:48:17;;;;;;;62.80;31.85;;;;;;;;;;5059922;28;20029;-72
2022/01/18 00:50:44;;;;;;;67.72;30.13;;;;;;;;;;5059971;28;20023;-72
2022/01/18 00:53:14;;;;;;;64.22;28.70;;;;;;;;;;5059374;28;20059;-72
2022/01/18 00:55:51;;;;;;;72.35;31.38;;;;;;;;;;5059798;28;20053;-72
2022/01/18 00:58:17;;;;;;;61.05;29.20;;;;;;;;;;5058226;28;20021;-73
2022/01/18 01:00:43;;;;;;;60.00;29.85;;;;;;;;;;5059775;28;20059;-72
2022/01/18 01:03:09;;;;;;;62.83;28.70;;;;;;;;;;5059627;28;20029;-72
2022/01/18 01:05:35;;;;;;;64.00;29.52;;;;;;;;;;5057970;28;20465;-73
2022/01/18 01:08:01;;;;;;;57.67;27.52;;;;;;;;;;5059139;28;20334;-72
2022/01/18 01:10:27;;;;;;;63.70;33.15;;;;;;;;;;5041514;28;20028;-72
2022/01/18 01:12:54;;;;;;;75.55;32.47;;;;;;;;;;5058048;28;20017;-72
2022/01/18 01:15:22;;;;;;;71.47;33.05;;;;;;;;;;5058953;28;20029;-73
2022/01/18 01:18:05;;;;;;;70.28;31.27;;;;;;;;;;5057995;28;20090;-73
2022/01/18 01:36:50;;;;;;;53.08;27.20;;;;;;;;;;5057622;28;20021;-73
2022/01/18 01:44:38;;;;;;;52.63;26.55;;;;;;;;;;5058962;28;20029;-72
2022/01/18 01:47:05;;;;;;;72.88;29.20;;;;;;;;;;5057071;28;20017;-72
2022/01/18 01:49:32;;;;;;;55.33;25.90;;;;;;;;;;5057590;28;20036;-73
2022/01/18 01:51:58;;;;;;;61.28;26.83;;;;;;;;;;5057131;28;20107;-72
2022/01/18 01:54:24;;;;;;;67.45;28.65;;;;;;;;;;5058065;28;20031;-72
2022/01/18 01:56:50;;;;;;;60.10;27.77;;;;;;;;;;5058334;28;20107;-73
2022/01/18 01:59:16;;;;;;;44.00;24.45;;;;;;;;;;5057141;28;20116;-72
2022/01/18 02:01:47;;;;;;;58.67;31.05;;;;;;;;;;5040599;28;20027;-73
2022/01/18 02:04:13;;;;;;;70.28;32.50;;;;;;;;;;5057308;28;20020;-72
2022/01/18 02:06:39;;;;;;;66.95;32.97;;;;;;;;;;5057012;28;20117;-72
2022/01/18 02:09:05;;;;;;;62.65;30.23;;;;;;;;;;5057122;28;20036;-72
2022/01/18 02:11:32;;;;;;;54.38;29.60;;;;;;;;;;5057130;28;20174;-73
2022/01/18 02:13:58;;;;;;;74.63;35.80;;;;;;;;;;5058269;28;20033;-72
2022/01/18 02:21:53;;;;;;;77.75;34.75;;;;;;;;;;5073368;28;20442;-71
2022/01/18 02:24:22;;;;;;;68.15;31.33;;;;;;;;;;5057705;28;20455;-73
2022/01/18 02:26:49;;;;;;;75.93;34.45;;;;;;;;;;5057401;28;20108;-73
2022/01/18 02:29:17;;;;;;;71.78;31.00;;;;;;;;;;5040633;28;20487;-75
2022/01/18 02:31:44;;;;;;;73.55;31.77;;;;;;;;;;5040041;28;20028;-71
2022/01/18 02:34:13;;;;;;;71.30;31.20;;;;;;;;;;5039859;28;20020;-71
2022/01/18 02:36:40;;;;;;;68.88;30.85;;;;;;;;;;5040201;28;20056;-73
2022/01/18 02:39:08;;;;;;;70.53;33.88;;;;;;;;;;5057202;28;20343;-74
2022/01/18 02:41:36;;;;;;;82.65;36.97;;;;;;;;;;5055526;28;20024;-74
2022/01/18 02:44:05;;;;;;;76.80;38.80;;;;;;;;;;5057523;28;20108;-73
2022/01/18 02:46:31;;;;;;;74.60;35.85;;;;;;;;;;5055892;28;20055;-72
2022/01/18 02:48:58;;;;;;;84.38;37.83;;;;;;;;;;5056215;28;20029;-72
2022/01/18 02:51:24;;;;;;;88.28;44.00;;;;;;;;;;5039600;28;20021;-71
2022/01/18 02:53:57;;;;;;;87.63;43.83;;;;;;;;;;5056076;28;20028;-71
2022/01/18 02:56:25;;;;;;;80.85;40.53;;;;;;;;;;5039308;28;20025;-73
2022/01/18 02:58:59;;;;;;;83.65;43.05;;;;;;;;;;5057552;28;20016;-72
2022/01/18 03:04:10;;;;;;;70.40;38.80;;;;;;;;;;5057109;28;20416;-72
2022/01/18 03:06:41;;;;;;;80.95;38.13;;;;;;;;;;5055272;28;20334;-71
2022/01/18 03:09:10;;;;;;;82.60;39.38;;;;;;;;;;5055421;28;20151;-73
2022/01/18 03:11:36;;;;;;;78.75;38.13;;;;;;;;;;5038865;28;20025;-73
2022/01/18 03:14:03;;;;;;;80.82;41.03;;;;;;;;;;5055767;28;20025;-73
2022/01/18 03:16:30;;;;;;;82.80;40.92;;;;;;;;;;5056859;28;20021;-74
2022/01/18 03:18:56;;;;;;;96.25;47.80;;;;;;;;;;5067953;23;20040;-73
2022/01/18 03:21:22;;;;;;;89.38;46.75;;;;;;;;;;5035345;28;20017;-72
2022/01/18 03:23:53;;;;;;;93.32;48.88;;;;;;;;;;5052273;28;20386;-72
2022/01/18 03:26:19;;;;;;;;;;;;;;;;;;5052563;28;20018;-73
2022/01/18 03:28:48;;;;;;;75.82;38.97;;;;;;;;;;5035491;28;19921;-74
2022/01/18 03:31:15;;;;;;;75.50;34.08;;;;;;;;;;5035934;28;20028;-74
2022/01/18 03:33:41;;;;;;;76.22;37.83;;;;;;;;;;5035724;28;20029;-72
2022/01/18 03:36:08;;;;;;;79.03;37.70;;;;;;;;;;5051976;28;20339;-73
2022/01/18 03:38:35;;;;;;;74.28;36.88;;;;;;;;;;5051760;28;20331;-72
2022/01/18 03:41:03;;;;;;;73.50;38.00;;;;;;;;;;5051542;28;20030;-73
2022/01/18 03:43:29;;;;;;;66.75;34.75;;;;;;;;;;5036609;28;20025;-73
2022/01/18 03:46:00;;;;;;;67.10;36.20;;;;;;;;;;5039989;28;20024;-72
2022/01/18 03:48:38;;;;;;;68.43;38.22;;;;;;;;;;5040482;28;20029;-72
2022/01/18 03:51:05;;;;;;;66.95;36.05;;;;;;;;;;5038575;28;20284;-72
2022/01/18 03:53:32;;;;;;;73.35;35.33;;;;;;;;;;5055934;28;20321;-74
2022/01/18 03:55:58;;;;;;;72.80;38.28;;;;;;;;;;5055987;28;20025;-73
2022/01/18 03:58:24;;;;;;;73.35;33.83;;;;;;;;;;5038823;28;20031;-73
2022/01/18 04:00:50;;;;;;;69.20;33.47;;;;;;;;;;5039027;28;20024;-73
2022/01/18 04:03:17;;;;;;;69.90;39.17;;;;;;;;;;5040526;28;20030;-74
2022/01/18 04:05:43;;;;;;;76.93;38.22;;;;;;;;;;5055378;28;20083;-72
2022/01/18 04:08:09;;;;;;;79.15;41.22;;;;;;;;;;5055302;28;20462;-70
2022/01/18 04:10:35;;;;;;;72.75;37.38;;;;;;;;;;5055312;28;20030;-71
2022/01/18 04:13:01;;;;;;;75.15;36.55;;;;;;;;;;5022193;28;20120;-73
2022/01/18 04:15:29;;;;;;;76.03;40.08;;;;;;;;;;5039689;28;20342;-73
2022/01/18 04:26:56;;;;;;;76.70;39.72;;;;;;;;;;5054481;28;20022;-73
2022/01/18 04:28:56;;;;;;;77.82;39.35;;;;;;;;;;5038223;28;20040;-74
2022/01/18 04:31:22;;;;;;;83.55;43.88;;;;;;;;;;5037353;28;20386;-73
2022/01/18 04:33:51;;;;;;;77.68;38.67;;;;;;;;;;5038241;28;20033;-73
2022/01/18 04:36:18;;;;;;;72.82;40.60;;;;;;;;;;5037692;28;20021;-73
2022/01/18 04:38:44;;;;;;;74.07;37.42;;;;;;;;;;5037648;28;20028;-72
2022/01/18 04:41:15;;;;;;;75.55;38.15;;;;;;;;;;5038156;28;20045;-72
2022/01/18 04:48:59;;;;;;;63.95;33.45;;;;;;;;;;5054422;28;20124;-72
2022/01/18 04:51:27;;;;;;;63.58;33.90;;;;;;;;;;5058247;22;20048;-73
2022/01/18 04:53:55;;;;;;;58.83;34.58;;;;;;;;;;5077444;28;20025;-73
2022/01/18 04:58:59;;;;;;;62.97;35.85;;;;;;;;;;5057274;28;20452;-73
2022/01/18 05:01:25;;;;;;;61.65;31.92;;;;;;;;;;5055911;28;20105;-73
2022/01/18 05:03:51;;;;;;;57.13;31.35;;;;;;;;;;5057449;28;20024;-74
2022/01/18 05:06:19;;;;;;;76.28;36.97;;;;;;;;;;5039762;28;20017;-72
2022/01/18 05:08:45;;;;;;;65.75;33.78;;;;;;;;;;5056935;28;20331;-73
2022/01/18 05:11:14;;;;;;;61.80;33.58;;;;;;;;;;5056856;28;20051;-73
2022/01/18 05:16:45;;;;;;;66.10;30.52;;;;;;;;;;5055753;28;20330;-71
2022/01/18 05:19:24;;;;;;;78.32;36.00;;;;;;;;;;5055237;28;20025;-73
2022/01/18 05:24:23;;;;;;;73.22;33.63;;;;;;;;;;5056132;28;20082;-75
2022/01/18 05:26:51;;;;;;;68.03;34.30;;;;;;;;;;5055752;28;20020;-73
2022/01/18 05:29:18;;;;;;;68.97;34.83;;;;;;;;;;5055555;28;20047;-75
2022/01/18 05:31:44;;;;;;;70.22;34.03;;;;;;;;;;5056734;28;20032;-73
2022/01/18 05:34:10;;;;;;;66.40;34.25;;;;;;;;;;5057012;28;20028;-74
2022/01/18 05:36:37;;;;;;;64.93;34.88;;;;;;;;;;5056784;28;20124;-72
2022/01/18 05:39:04;;;;;;;62.03;34.72;;;;;;;;;;5063548;22;20431;-71
2022/01/18 05:41:30;;;;;;;62.50;32.03;;;;;;;;;;5057365;28;20046;-73
2022/01/18 05:43:57;;;;;;;64.38;32.63;;;;;;;;;;5057128;28;20017;-73
2022/01/18 05:46:24;;;;;;;65.32;34.85;;;;;;;;;;5055772;28;20025;-74
2022/01/18 05:48:50;;;;;;;70.57;38.83;;;;;;;;;;5056088;28;20110;-73
2022/01/18 05:51:26;;;;;;;64.53;36.30;;;;;;;;;;5057589;28;20351;-74
2022/01/18 05:53:54;;;;;;;61.13;36.45;;;;;;;;;;5057525;28;20411;-73
2022/01/18 05:56:20;;;;;;;55.85;33.33;;;;;;;;;;5056394;28;20044;-75
2022/01/18 05:58:48;;;;;;;62.13;35.08;;;;;;;;;;5027693;23;20050;-74
2022/01/18 06:01:21;;;;;;;64.65;33.90;;;;;;;;;;5037639;28;20403;-74
2022/01/18 06:09:10;;;;;;;60.72;33.80;;;;;;;;;;5037110;28;20025;-75
2022/01/18 06:11:39;;;;;;;69.18;40.78;;;;;;;;;;5020024;28;20021;-74
2022/01/18 06:14:05;;;;;;;57.95;33.38;;;;;;;;;;5036385;28;20331;-74
2022/01/18 06:16:31;;;;;;;64.63;37.03;;;;;;;;;;5019348;28;20025;-74
2022/01/18 06:18:57;;;;;;;66.93;36.40;;;;;;;;;;5035869;28;20369;-73
2022/01/18 06:21:25;;;;;;;62.45;38.08;;;;;;;;;;5035590;28;20194;-74
2022/01/18 06:23:52;;;;;;;60.88;33.25;;;;;;;;;;5019636;28;20026;-74
2022/01/18 06:26:18;;;;;;;64.47;39.25;;;;;;;;;;5018973;28;20024;-75
2022/01/18 06:28:45;;;;;;;57.72;31.15;;;;;;;;;;5036442;28;20032;-75
2022/01/18 06:31:11;;;;;;;69.28;34.13;;;;;;;;;;5019754;28;20064;-73
2022/01/18 06:33:37;;;;;;;69.10;37.78;;;;;;;;;;5035985;28;20029;-73
2022/01/18 06:36:03;;;;;;;63.35;36.05;;;;;;;;;;5036639;28;20022;-73
2022/01/18 06:38:30;;;;;;;65.28;33.15;;;;;;;;;;5039213;28;20400;-71
2022/01/18 06:40:56;;;;;;;75.43;44.05;;;;;;;;;;5036610;28;20025;-72
2022/01/18 06:43:22;;;;;;;69.40;35.78;;;;;;;;;;5036818;28;20079;-73
2022/01/18 06:45:48;;;;;;;75.25;37.97;;;;;;;;;;5038352;28;20028;-73
2022/01/18 06:48:14;;;;;;;68.10;35.03;;;;;;;;;;5037265;28;20037;-75
2022/01/18 06:50:41;;;;;;;62.70;30.75;;;;;;;;;;5038373;28;20415;-73
2022/01/18 06:53:07;;;;;;;70.65;34.58;;;;;;;;;;5037022;28;20053;-74
2022/01/18 06:55:33;;;;;;;48.70;27.27;;;;;;;;;;5035699;28;20021;-73
2022/01/18 06:57:59;;;;;;;62.15;32.10;;;;;;;;;;5019258;28;20045;-74
2022/01/18 07:00:25;;;;;;;54.47;31.45;;;;;;;;;;5034565;28;20423;-75
2022/01/18 07:02:51;;;;;;;59.55;30.20;;;;;;;;;;5035902;28;20080;-73
2022/01/18 07:05:17;;;;;;;64.32;30.42;;;;;;;;;;5034941;28;20014;-75
2022/01/18 07:07:47;;;;;;;60.92;31.70;;;;;;;;;;5018866;28;20313;-75
2022/01/18 07:10:14;;;;;;;74.80;36.65;;;;;;;;;;5019065;28;20028;-76
2022/01/18 07:12:40;;;;;;;76.72;36.40;;;;;;;;;;5036704;28;20044;-75
2022/01/18 07:15:06;;;;;;;69.03;34.15;;;;;;;;;;5035256;28;20087;-75
2022/01/18 07:17:33;;;;;;;87.45;40.88;;;;;;;;;;5033978;28;20067;-75
2022/01/18 07:19:59;;;;;;;65.07;31.88;;;;;;;;;;5034466;28;20036;-75
2022/01/18 07:22:26;;;;;;;83.82;35.17;;;;;;;;;;5017571;28;20025;-75
2022/01/18 07:24:56;;;;;;;69.25;37.78;;;;;;;;;;5033552;28;20343;-74
2022/01/18 07:27:24;;;;;;;73.88;30.60;;;;;;;;;;5034029;28;20032;-74
2022/01/18 07:29:52;;;;;;;66.57;34.70;;;;;;;;;;5018064;28;20077;-75
2022/01/18 07:32:18;;;;;;;69.22;36.58;;;;;;;;;;5017776;28;20017;-75
2022/01/18 07:34:51;;;;;;;68.45;34.38;;;;;;;;;;5034726;28;20351;-75
2022/01/18 07:37:22;;;;;;;69.55;30.08;;;;;;;;;;5018827;28;20060;-75
2022/01/18 07:39:49;;;;;;;69.53;34.95;;;;;;;;;;5019331;28;20021;-75
2022/01/18 07:42:19;;;;;;;81.68;37.08;;;;;;;;;;5019110;28;20026;-75
2022/01/18 07:44:45;;;;;;;71.95;33.70;;;;;;;;;;5035768;28;20033;-75
2022/01/18 07:47:11;;;;;;;61.75;32.25;;;;;;;;;;5034989;28;20148;-75
2022/01/18 07:49:37;;;;;;;69.45;36.40;;;;;;;;;;5036496;28;20025;-75
2022/01/18 07:52:03;;;;;;;67.85;34.40;;;;;;;;;;5035944;28;20420;-76
2022/01/18 07:54:29;;;;;;;66.50;31.83;;;;;;;;;;5018984;28;20129;-76
2022/01/18 07:56:55;;;;;;;66.60;31.25;;;;;;;;;;5034745;28;20025;-75
2022/01/18 07:59:21;;;;;;;61.42;28.98;;;;;;;;;;5036431;28;20079;-76
2022/01/18 08:01:49;;;;;;;52.88;28.15;;;;;;;;;;5034941;28;20049;-76
2022/01/18 08:04:23;;;;;;;69.35;29.65;;;;;;;;;;5019069;28;20037;-76
2022/01/18 08:06:51;;;;;;;70.15;29.75;;;;;;;;;;5019114;28;20068;-76
2022/01/18 08:09:19;;;;;;;73.40;29.67;;;;;;;;;;5036166;28;20348;-75
2022/01/18 08:11:46;;;;;;;71.65;33.05;;;;;;;;;;5034772;28;20070;-77
2022/01/18 08:14:13;;;;;;;67.57;30.77;;;;;;;;;;5018318;28;20044;-76
2022/01/18 08:17:01;;;;;;;58.95;28.15;;;;;;;;;;5034659;28;20119;-77
2022/01/18 08:19:28;;;;;;;78.65;32.22;;;;;;;;;;5035412;28;20109;-76
2022/01/18 08:21:55;;;;;;;71.20;32.50;;;;;;;;;;5034319;28;20485;-76
2022/01/18 08:24:21;;;;;;;68.43;34.65;;;;;;;;;;5018580;28;20045;-75
2022/01/18 08:26:47;;;;;;;66.90;30.77;;;;;;;;;;5035836;28;20018;-76
2022/01/18 08:29:13;;;;;;;71.60;33.10;;;;;;;;;;5018267;28;20033;-76
2022/01/18 08:31:39;;;;;;;56.03;30.23;;;;;;;;;;5020931;28;20112;-75
2022/01/18 08:34:05;;;;;;;63.15;31.33;;;;;;;;;;5038894;28;20018;-75
2022/01/18 08:36:33;;;;;;;66.75;34.60;;;;;;;;;;5039737;28;20025;-75
2022/01/18 08:39:00;;;;;;;77.53;39.58;;;;;;;;;;5038638;28;20026;-75
2022/01/18 08:41:26;;;;;;;76.47;38.85;;;;;;;;;;5037951;28;20026;-75
2022/01/18 08:43:53;;;;;;;68.47;35.53;;;;;;;;;;5039121;28;20063;-75
2022/01/18 08:46:20;;;;;;;66.53;36.80;;;;;;;;;;5037899;28;20423;-76
2022/01/18 08:48:46;;;;;;;85.32;41.90;;;;;;;;;;5037691;28;20030;-75
2022/01/18 08:51:12;;;;;;;64.30;35.90;;;;;;;;;;5037601;28;20024;-75
2022/01/18 08:53:39;;;;;;;67.50;37.38;;;;;;;;;;5037968;28;20025;-75
2022/01/18 08:56:05;;;;;;;63.63;33.78;;;;;;;;;;5038024;28;20017;-75
2022/01/18 08:58:34;;;;;;;70.90;40.08;;;;;;;;;;5037991;28;20038;-75
2022/01/18 09:01:01;;;;;;;79.75;36.75;;;;;;;;;;5021778;28;20438;-75
2022/01/18 09:03:27;;;;;;;79.03;33.08;;;;;;;;;;5039501;28;20025;-75
2022/01/18 09:05:56;;;;;;;89.22;36.17;;;;;;;;;;5038876;28;20343;-76
2022/01/18 09:08:22;;;;;;;81.40;35.72;;;;;;;;;;5038125;28;20025;-74
2022/01/18 09:10:48;;;;;;;72.03;30.27;;;;;;;;;;5020940;28;20064;-75
2022/01/18 09:13:15;;;;;;;66.50;31.13;;;;;;;;;;5021165;28;20091;-74
2022/01/18 09:15:42;;;;;;;77.85;33.13;;;;;;;;;;5022036;28;20104;-74
2022/01/18 09:18:09;;;;;;;73.07;30.70;;;;;;;;;;5021603;28;20022;-76
2022/01/18 09:20:38;;;;;;;55.65;29.23;;;;;;;;;;5037187;28;20096;-75
2022/01/18 09:23:04;;;;;;;73.60;27.02;;;;;;;;;;5038053;28;20111;-74
2022/01/18 09:25:30;;;;;;;71.03;30.77;;;;;;;;;;5021400;28;20021;-75
2022/01/18 09:27:57;;;;;;;54.80;25.90;;;;;;;;;;5037696;28;20347;-74
2022/01/18 09:30:25;;;;;;;62.63;27.70;;;;;;;;;;5037332;28;20018;-74
2022/01/18 09:32:51;;;;;;;56.25;27.02;;;;;;;;;;5037856;28;20017;-75
2022/01/18 09:35:17;;;;;;;60.30;30.35;;;;;;;;;;5021458;28;20408;-75
2022/01/18 09:37:44;;;;;;;56.95;23.15;;;;;;;;;;5038251;28;20063;-75
2022/01/18 09:40:11;;;;;;;63.20;24.27;;;;;;;;;;5021390;28;20401;-74
2022/01/18 09:42:40;;;;;;;62.42;25.98;;;;;;;;;;5020188;28;20332;-75
2022/01/18 09:45:11;;;;;;;66.75;24.60;;;;;;;;;;5037801;28;20025;-75
2022/01/18 09:47:38;;;;;;;62.58;26.38;;;;;;;;;;5021097;28;20029;-75
2022/01/18 09:50:07;;;;;;;58.47;27.60;;;;;;;;;;5037018;28;20477;-74
2022/01/18 09:52:33;;;;;;;55.35;23.23;;;;;;;;;;5037772;28;20029;-75
2022/01/18 09:54:59;;;;;;;52.72;26.58;;;;;;;;;;5021029;28;20104;-75
2022/01/18 09:57:25;;;;;;;59.30;27.17;;;;;;;;;;5021177;28;20101;-75
2022/01/18 09:59:51;;;;;;;79.82;29.85;;;;;;;;;;5019134;28;20043;-74
2022/01/18 10:02:19;;;;;;;67.03;27.48;;;;;;;;;;5018459;28;20033;-74
2022/01/18 10:04:47;;;;;;;61.45;27.50;;;;;;;;;;5036163;28;20366;-74
2022/01/18 10:07:13;;;;;;;49.08;22.58;;;;;;;;;;5018235;28;20400;-75
2022/01/18 10:09:39;;;;;;;56.53;23.98;;;;;;;;;;5034461;28;20065;-75
2022/01/18 10:12:10;;;;;;;59.90;23.40;;;;;;;;;;5018050;28;20448;-75
2022/01/18 10:14:41;;;;;;;56.03;22.70;;;;;;;;;;5018289;28;20374;-74
2022/01/18 10:17:07;;;;;;;48.28;21.48;;;;;;;;;;5035818;28;20021;-74
2022/01/18 10:19:47;;;;;;;48.55;20.45;;;;;;;;;;5034859;28;20499;-75
2022/01/18 10:22:18;;;;;;;41.97;19.23;;;;;;;;;;5034592;28;20170;-75
2022/01/18 10:24:45;;;;;;;45.75;18.25;;;;;;;;;;5018439;28;20021;-74
2022/01/18 10:27:13;;;;;;;47.13;22.73;;;;;;;;;;5034450;28;20029;-74
2022/01/18 10:29:51;;;;;;;61.83;23.98;;;;;;;;;;5036751;28;20033;-74
2022/01/18 10:32:32;;;;;;;57.45;21.70;;;;;;;;;;5036932;28;20020;-75
2022/01/18 10:37:32;;;;;;;60.58;22.83;;;;;;;;;;5053345;28;19909;-74
2022/01/18 10:40:00;;;;;;;61.67;28.33;;;;;;;;;;5020223;28;20045;-74
2022/01/18 10:42:36;;;;;;;64.82;33.03;;;;;;;;;;5019814;28;20024;-74
2022/01/18 10:45:05;;;;;;;60.67;29.70;;;;;;;;;;5037399;28;20427;-74
2022/01/18 10:47:31;;;;;;;73.05;30.90;;;;;;;;;;5037666;28;20021;-75
2022/01/18 10:50:05;;;;;;;62.17;31.13;;;;;;;;;;5035837;28;20100;-75
2022/01/18 10:52:31;;;;;;;60.78;26.48;;;;;;;;;;5036230;28;20411;-75
2022/01/18 10:54:59;;;;;;;64.47;28.40;;;;;;;;;;5034825;28;20029;-75
2022/01/18 10:57:25;;;;;;;65.35;27.35;;;;;;;;;;5019695;28;20036;-75
2022/01/18 10:59:55;;;;;;;77.45;28.88;;;;;;;;;;5037106;28;20036;-75
2022/01/18 11:02:21;;;;;;;59.17;25.75;;;;;;;;;;5019229;28;20020;-75
2022/01/18 11:04:48;;;;;;;52.50;26.25;;;;;;;;;;5036365;28;20026;-75
2022/01/18 11:07:25;;;;;;;60.92;26.27;;;;;;;;;;5035368;28;20025;-76
2022/01/18 11:09:52;;;;;;;58.95;26.38;;;;;;;;;;5034998;28;20044;-74
2022/01/18 11:12:22;;;;;;;53.28;22.33;;;;;;;;;;5034983;28;20060;-75
2022/01/18 11:15:00;;;;;;;60.72;22.15;;;;;;;;;;5018671;28;20067;-75
2022/01/18 11:17:26;;;;;;;45.17;19.52;;;;;;;;;;5034795;28;20025;-76
2022/01/18 11:19:56;;;;;;;76.05;23.02;;;;;;;;;;5034578;28;20029;-75
2022/01/18 11:22:27;;;;;;;61.65;21.23;;;;;;;;;;5036325;28;20416;-75
2022/01/18 11:24:57;;;;;;;55.60;21.08;;;;;;;;;;5034968;28;20032;-75
2022/01/18 11:27:27;;;;;;;54.80;23.45;;;;;;;;;;5018401;28;20112;-75
2022/01/18 11:29:54;;;;;;;64.18;22.67;;;;;;;;;;5018401;28;20033;-75
2022/01/18 11:32:24;;;;;;;57.17;20.50;;;;;;;;;;5035794;28;20025;-75
2022/01/18 11:35:02;;;;;;;57.00;23.20;;;;;;;;;;5018836;28;20022;-75
2022/01/18 11:37:40;;;;;;;52.55;21.05;;;;;;;;;;5035230;28;20052;-75
2022/01/18 11:40:08;;;;;;;49.05;22.00;;;;;;;;;;5019039;28;20040;-74
2022/01/18 11:42:41;;;;;;;52.17;22.23;;;;;;;;;;5018937;28;20033;-74
2022/01/18 11:45:26;;;;;;;66.45;24.33;;;;;;;;;;5018529;28;20022;-74
2022/01/18 11:47:59;;;;;;;55.50;21.48;;;;;;;;;;5034460;28;20324;-75
2022/01/18 11:50:30;;;;;;;57.15;23.17;;;;;;;;;;5018830;28;20026;-75
2022/01/18 11:53:21;;;;;;;52.75;22.35;;;;;;;;;;5018967;28;20029;-75
2022/01/18 11:55:48;;;;;;;63.92;25.73;;;;;;;;;;5018352;28;20025;-75
2022/01/18 11:58:15;;;;;;;56.10;24.80;;;;;;;;;;5035779;28;20081;-76
2022/01/18 12:00:53;;;;;;;58.10;23.88;;;;;;;;;;5036000;28;20144;-75
2022/01/18 12:03:21;;;;;;;58.92;23.20;;;;;;;;;;5035046;28;20022;-75
2022/01/18 12:05:48;;;;;;;61.72;23.08;;;;;;;;;;5021159;28;20431;-76
2022/01/18 12:08:34;;;;;;;55.40;23.42;;;;;;;;;;5060264;23;20045;-75
2022/01/18 12:11:01;;;;;;;58.92;23.90;;;;;;;;;;5058668;28;20017;-75
2022/01/18 12:13:30;;;;;;;63.60;25.90;;;;;;;;;;5042946;28;20091;-75
2022/01/18 12:15:58;;;;;;;121.55;56.08;;;;;;;;;;5059314;28;20031;-75
2022/01/18 12:18:25;;;;;;;93.13;47.05;;;;;;;;;;5058691;28;20036;-74
2022/01/18 12:20:52;;;;;;;114.38;55.65;;;;;;;;;;5059788;28;20048;-75
2022/01/18 12:23:40;;;;;;;121.68;56.67;;;;;;;;;;5058477;28;20142;-75
2022/01/18 12:26:17;;;;;;;116.90;51.40;;;;;;;;;;5057950;28;20027;-75
2022/01/18 12:28:51;;;;;;;124.82;62.20;;;;;;;;;;5041400;28;20029;-75
2022/01/18 12:31:51;;;;;;;123.80;61.85;;;;;;;;;;5041576;28;20017;-76
2022/01/18 12:34:30;;;;;;;99.68;46.60;;;;;;;;;;5058071;28;20025;-76
2022/01/18 12:37:08;;;;;;;92.05;40.95;;;;;;;;;;5057957;28;20448;-75
2022/01/18 12:39:52;;;;;;;103.18;38.33;;;;;;;;;;5058096;28;20021;-75
2022/01/18 12:45:15;;;;;;;87.72;37.85;;;;;;;;;;5055297;28;20033;-75
2022/01/18 12:47:41;;;;;;;;;;;;;;;;;;5058512;28;20067;-75
2022/01/18 12:50:08;;;;;;;78.28;35.65;;;;;;;;;;5059340;28;19908;-76
2022/01/18 12:53:00;;;;;;;130.50;64.25;;;;;;;;;;5058182;28;20021;-74
2022/01/18 12:55:42;;;;;;;200.10;95.85;;;;;;;;;;5056570;28;20033;-75
2022/01/18 12:58:10;;;;;;;184.10;97.22;;;;;;;;;;5058020;28;20020;-75
2022/01/18 13:00:45;;;;;;;203.15;105.88;;;;;;;;;;5041542;28;20021;-75
2022/01/18 13:03:19;;;;;;;179.40;100.80;;;;;;;;;;5058343;28;20056;-75
2022/01/18 13:05:46;;;;;;;125.30;67.97;;;;;;;;;;5041401;28;20045;-75
2022/01/18 13:08:13;;;;;;;135.60;68.10;;;;;;;;;;5041184;28;20457;-76
2022/01/18 13:10:46;;;;;;;145.35;76.47;;;;;;;;;;5057655;28;20079;-77
2022/01/18 13:13:15;;;;;;;147.32;77.28;;;;;;;;;;5057423;28;20276;-76
2022/01/18 13:16:05;;;;;;;152.68;79.68;;;;;;;;;;5040637;28;20123;-76
2022/01/18 13:26:54;;;;;;;174.50;84.55;;;;;;;;;;5058587;28;20020;-76
2022/01/18 13:29:22;;;;;;;235.80;114.82;;;;;;;;;;5040817;28;20373;-76
2022/01/18 13:32:01;;;;;;;267.00;126.97;;;;;;;;;;5040658;28;20017;-76
2022/01/18 13:34:35;;;;;;;255.90;127.63;;;;;;;;;;5056532;28;20374;-76
2022/01/18 13:37:06;;;;;;;296.95;157.35;;;;;;;;;;5057267;28;20098;-75
2022/01/18 13:39:36;;;;;;;307.35;158.48;;;;;;;;;;5057568;28;20104;-75
2022/01/18 13:42:02;;;;;;;310.03;158.67;;;;;;;;;;5057193;28;20016;-76
2022/01/18 13:44:30;;;;;;;293.50;158.32;;;;;;;;;;5058423;28;20021;-75
2022/01/18 13:47:17;;;;;;;308.73;160.82;;;;;;;;;;5040357;28;20338;-75
2022/01/18 13:49:43;;;;;;;289.65;153.00;;;;;;;;;;5056364;28;20040;-75
2022/01/18 13:52:10;;;;;;;315.05;161.45;;;;;;;;;;5040309;28;20021;-75
2022/01/18 13:54:43;;;;;;;315.92;157.52;;;;;;;;;;5056918;28;20094;-76
2022/01/18 13:57:11;;;;;;;312.20;162.95;;;;;;;;;;5040796;28;20446;-75
2022/01/18 13:59:37;;;;;;;321.90;171.52;;;;;;;;;;5056823;28;20047;-75
2022/01/18 14:02:13;;;;;;;326.98;168.98;;;;;;;;;;5040327;28;20025;-76
2022/01/18 14:04:43;;;;;;;309.33;158.18;;;;;;;;;;5040557;28;20032;-75
2022/01/18 14:07:09;;;;;;;234.55;127.07;;;;;;;;;;5056384;28;20021;-75
2022/01/18 14:09:36;;;;;;;229.52;121.97;;;;;;;;;;5040262;28;20033;-76
2022/01/18 14:12:03;;;;;;;191.00;103.18;;;;;;;;;;5039635;28;20422;-75
2022/01/18 14:14:31;;;;;;;198.60;109.43;;;;;;;;;;5057255;28;20027;-76
2022/01/18 14:17:00;;;;;;;218.88;117.53;;;;;;;;;;5057893;28;20017;-75
2022/01/18 14:19:35;;;;;;;232.65;127.45;;;;;;;;;;5039543;28;20418;-75
2022/01/18 14:22:03;;;;;;;232.07;126.60;;;;;;;;;;5039893;28;20040;-75
2022/01/18 14:24:39;;;;;;;254.00;129.20;;;;;;;;;;5056338;28;20425;-76
2022/01/18 14:27:07;;;;;;;232.43;128.32;;;;;;;;;;5055635;28;20032;-75
2022/01/18 14:29:42;;;;;;;232.30;128.70;;;;;;;;;;5054959;28;20051;-75
2022/01/18 14:32:20;;;;;;;243.80;132.73;;;;;;;;;;5055186;28;20013;-76
2022/01/18 14:34:55;;;;;;;230.18;126.43;;;;;;;;;;5039361;28;20047;-75
2022/01/18 14:37:33;;;;;;;232.68;123.45;;;;;;;;;;5039796;28;20017;-76
2022/01/18 14:40:01;;;;;;;206.98;111.47;;;;;;;;;;5056050;28;20342;-76
2022/01/18 14:42:40;;;;;;;224.02;120.05;;;;;;;;;;5056169;28;20024;-75
2022/01/18 14:47:42;;;;;;;217.50;118.30;;;;;;;;;;5056293;28;20039;-76
2022/01/18 14:50:11;;;;;;;235.32;124.32;;;;;;;;;;5039471;28;20048;-76
2022/01/18 14:52:38;;;;;;;223.68;120.35;;;;;;;;;;5039541;28;20020;-75
2022/01/18 14:55:05;;;;;;;207.35;108.45;;;;;;;;;;5039230;28;20120;-76
2022/01/18 14:57:32;;;;;;;192.40;103.60;;;;;;;;;;5055913;28;20029;-75
2022/01/18 14:59:58;;;;;;;173.80;92.82;;;;;;;;;;5055713;28;20024;-75
2022/01/18 15:02:24;;;;;;;185.18;94.90;;;;;;;;;;5055460;28;20020;-75
2022/01/18 15:04:51;;;;;;;201.35;94.50;;;;;;;;;;5056565;28;20020;-75
2022/01/18 15:07:18;;;;;;;199.43;102.10;;;;;;;;;;5039154;28;20120;-75
2022/01/18 15:09:44;;;;;;;180.55;97.30;;;;;;;;;;5038910;28;20033;-75
2022/01/18 15:12:11;;;;;;;168.38;94.38;;;;;;;;;;5055327;28;20115;-75
2022/01/18 15:14:37;;;;;;;171.43;90.35;;;;;;;;;;5022337;28;20066;-75
2022/01/18 15:17:03;;;;;;;167.77;93.22;;;;;;;;;;5054969;28;20066;-76
2022/01/18 15:19:30;;;;;;;166.98;91.72;;;;;;;;;;5038083;28;20485;-75
2022/01/18 15:21:56;;;;;;;177.38;93.50;;;;;;;;;;5054972;28;20493;-75
2022/01/18 15:24:22;;;;;;;169.15;87.03;;;;;;;;;;5056279;28;20339;-75
2022/01/18 15:26:52;;;;;;;169.73;87.13;;;;;;;;;;5055053;28;20023;-75
2022/01/18 15:29:18;;;;;;;158.20;85.85;;;;;;;;;;5038441;28;20037;-76
2022/01/18 15:31:45;;;;;;;164.82;85.68;;;;;;;;;;5056241;28;20025;-75
2022/01/18 15:34:11;;;;;;;160.75;87.57;;;;;;;;;;5056449;28;20063;-75
2022/01/18 15:36:39;;;;;;;164.57;83.88;;;;;;;;;;5038324;28;20021;-75
2022/01/18 15:39:05;;;;;;;150.60;84.25;;;;;;;;;;5038260;28;20119;-75
2022/01/18 15:41:31;;;;;;;151.93;85.53;;;;;;;;;;5055556;28;20343;-75
2022/01/18 15:43:57;;;;;;;163.90;88.93;;;;;;;;;;5038470;28;20021;-75
2022/01/18 15:46:25;;;;;;;163.23;87.22;;;;;;;;;;5054050;28;20380;-75